Time;durP1;ratioP1;P1;durP2;ratioP2;P2;SDS_P1;SDS_P2;PMS_P1;PMS_P2;Temp;Humidity;BMP_temperature;BMP_pressure;BME280_temperature;BME280_humidity;BME280_pressure;Samples;Min_cycle;Max_cycle;Signal;HPM_P1;HPM_P2
2023/09/04 00:01:07;;;;;;;3.65;2.80;;;23.30;62.00;;;;;;4973258;28;90213;-85
2023/09/04 00:03:33;;;;;;;3.78;3.17;;;23.30;61.90;;;;;;4992234;28;87896;-86
2023/09/04 00:05:58;;;;;;;3.10;2.80;;;23.20;62.00;;;;;;4987034;28;88238;-85
2023/09/04 00:08:24;;;;;;;3.28;2.97;;;23.20;62.00;;;;;;4990388;28;88328;-87
2023/09/04 00:10:50;;;;;;;3.47;3.13;;;23.20;62.00;;;;;;4990391;28;87748;-86
2023/09/04 00:13:16;;;;;;;3.65;3.30;;;23.20;62.10;;;;;;4990954;28;87845;-86
2023/09/04 00:15:43;;;;;;;3.20;2.90;;;23.20;61.90;;;;;;4991001;28;87397;-85
2023/09/04 00:18:09;;;;;;;3.00;2.80;;;23.20;62.00;;;;;;4990144;28;88483;-86
2023/09/04 00:20:35;;;;;;;3.70;3.40;;;23.20;62.00;;;;;;4987916;28;88629;-86
2023/09/04 00:23:00;;;;;;;5.13;3.10;;;23.20;61.90;;;;;;4992446;28;87461;-86
2023/09/04 00:25:27;;;;;;;3.10;2.67;;;23.20;62.00;;;;;;4990382;28;87404;-85
2023/09/04 00:27:55;;;;;;;3.47;3.17;;;23.20;62.10;;;;;;4991259;28;88156;-86
2023/09/04 00:30:20;;;;;;;3.03;2.83;;;23.20;62.10;;;;;;4990130;28;88638;-87
2023/09/04 00:32:46;;;;;;;3.25;3.03;;;23.20;62.10;;;;;;4987654;28;87814;-86
2023/09/04 00:35:13;;;;;;;3.17;2.88;;;23.20;62.20;;;;;;4971949;28;89043;-87
2023/09/04 00:37:40;;;;;;;3.38;3.08;;;23.20;62.10;;;;;;4989454;28;88572;-85
2023/09/04 00:40:07;;;;;;;2.88;2.60;;;23.20;62.30;;;;;;4990582;28;87689;-85
2023/09/04 00:42:33;;;;;;;4.07;3.00;;;23.20;62.00;;;;;;4990800;28;87873;-86
2023/09/04 00:45:00;;;;;;;2.90;2.70;;;23.20;62.10;;;;;;4972048;28;89685;-87
2023/09/04 00:47:27;;;;;;;3.08;2.88;;;23.20;62.10;;;;;;4990789;28;88058;-85
2023/09/04 00:49:54;;;;;;;3.70;3.40;;;23.20;62.00;;;;;;4990471;28;87551;-87
2023/09/04 00:52:23;;;;;;;3.20;3.00;;;23.20;62.10;;;;;;4990343;28;87905;-85
2023/09/04 00:54:49;;;;;;;3.43;3.13;;;23.20;62.10;;;;;;4973449;28;87616;-86
2023/09/04 00:57:15;;;;;;;3.42;3.13;;;23.20;61.90;;;;;;4986777;28;86958;-88
2023/09/04 00:59:41;;;;;;;3.63;3.33;;;23.20;61.90;;;;;;4988497;28;87626;-86
2023/09/04 01:02:07;;;;;;;3.55;3.25;;;23.20;62.00;;;;;;4989564;28;87892;-86
2023/09/04 01:04:33;;;;;;;3.70;3.40;;;23.20;62.00;;;;;;4971799;28;90149;-86
2023/09/04 01:06:59;;;;;;;3.47;3.17;;;23.20;62.10;;;;;;4972104;28;90566;-85
2023/09/04 01:09:26;;;;;;;3.20;2.83;;;23.20;62.10;;;;;;4988555;28;87248;-85
2023/09/04 01:11:57;;;;;;;3.75;3.35;;;23.20;62.10;;;;;;4989015;28;87850;-86
2023/09/04 01:14:24;;;;;;;3.75;3.42;;;23.20;62.00;;;;;;4989781;28;88213;-85
2023/09/04 01:16:51;;;;;;;3.05;2.80;;;23.20;62.10;;;;;;4988046;28;89063;-85
2023/09/04 01:19:18;;;;;;;3.42;3.13;;;23.10;62.30;;;;;;4988781;28;89121;-88
2023/09/04 01:21:43;;;;;;;3.30;3.00;;;23.20;62.10;;;;;;4987962;28;88011;-86
2023/09/04 01:24:09;;;;;;;3.33;3.03;;;23.10;62.10;;;;;;4987514;28;87443;-85
2023/09/04 01:27:05;;;;;;;3.53;3.22;;;23.10;62.10;;;;;;4988503;28;87738;-86
2023/09/04 01:29:47;;;;;;;3.50;3.20;;;23.20;62.10;;;;;;4988135;28;86978;-87
2023/09/04 01:32:32;;;;;;;2.80;2.60;;;23.10;62.20;;;;;;4989127;28;87421;-86
2023/09/04 01:35:00;;;;;;;3.03;2.80;;;23.20;62.20;;;;;;4984922;28;87422;-88
2023/09/04 01:37:29;;;;;;;3.45;3.15;;;23.10;62.00;;;;;;4987995;28;88652;-88
2023/09/04 01:39:55;;;;;;;3.15;2.90;;;23.10;62.30;;;;;;4987084;28;88228;-85
2023/09/04 01:42:20;;;;;;;3.63;3.30;;;23.10;62.20;;;;;;4986706;28;87892;-86
2023/09/04 01:44:46;;;;;;;3.50;3.20;;;23.10;62.10;;;;;;4987716;28;87826;-85
2023/09/04 01:47:11;;;;;;;3.45;3.10;;;23.10;62.30;;;;;;4988683;28;89507;-86
2023/09/04 01:49:37;;;;;;;3.28;2.97;;;23.10;62.10;;;;;;4986442;28;87841;-86
2023/09/04 01:52:03;;;;;;;3.72;3.42;;;23.10;62.20;;;;;;4988637;28;88057;-86
2023/09/04 01:54:29;;;;;;;3.33;3.03;;;23.10;62.20;;;;;;4989356;28;87642;-85
2023/09/04 01:56:55;;;;;;;3.50;3.20;;;23.10;62.30;;;;;;4987465;28;90611;-86
2023/09/04 01:59:20;;;;;;;3.63;3.28;;;23.10;62.00;;;;;;4989145;28;92125;-86
2023/09/04 02:01:46;;;;;;;3.53;3.22;;;23.10;62.20;;;;;;4990295;28;87628;-86
2023/09/04 02:04:12;;;;;;;3.92;3.63;;;23.00;62.20;;;;;;4989132;28;87695;-86
2023/09/04 02:06:37;;;;;;;3.15;2.92;;;23.10;62.10;;;;;;4988109;28;88771;-86
2023/09/04 02:09:06;;;;;;;4.05;3.10;;;23.00;62.20;;;;;;4987067;28;88387;-86
2023/09/04 02:11:32;;;;;;;3.20;2.78;;;23.10;62.20;;;;;;4988010;28;87796;-85
2023/09/04 02:13:57;;;;;;;3.08;2.80;;;23.00;62.10;;;;;;4985275;28;88449;-87
2023/09/04 02:16:23;;;;;;;3.88;3.47;;;23.00;62.20;;;;;;4987154;28;88017;-86
2023/09/04 02:18:50;;;;;;;3.42;3.10;;;23.00;62.30;;;;;;4988608;28;87884;-85
2023/09/04 02:21:16;;;;;;;3.28;2.97;;;23.00;62.40;;;;;;4989669;28;87336;-86
2023/09/04 02:23:42;;;;;;;3.55;3.25;;;23.00;62.40;;;;;;4987562;28;87101;-88
2023/09/04 02:26:08;;;;;;;3.40;3.10;;;23.00;62.40;;;;;;4988368;28;88527;-86
2023/09/04 02:28:34;;;;;;;3.47;3.10;;;23.10;62.40;;;;;;4985868;28;88545;-86
2023/09/04 02:31:06;;;;;;;3.30;3.00;;;23.00;62.40;;;;;;4983917;28;89108;-86
2023/09/04 02:33:32;;;;;;;3.15;2.85;;;23.00;62.50;;;;;;4983434;28;87425;-85
2023/09/04 02:35:57;;;;;;;3.00;2.80;;;23.00;62.30;;;;;;4983831;28;87855;-86
2023/09/04 02:38:23;;;;;;;3.60;3.10;;;23.00;63.10;;;;;;4983253;28;88041;-87
2023/09/04 02:40:49;;;;;;;3.30;3.00;;;23.00;62.40;;;;;;4984301;28;87212;-86
2023/09/04 02:43:14;;;;;;;3.55;3.25;;;23.00;62.50;;;;;;4984321;28;88041;-87
2023/09/04 02:45:40;;;;;;;3.38;3.08;;;23.00;62.60;;;;;;4983503;28;87600;-85
2023/09/04 02:48:06;;;;;;;4.55;3.88;;;23.00;62.60;;;;;;4983473;28;88467;-87
2023/09/04 02:50:31;;;;;;;3.55;3.20;;;23.00;62.60;;;;;;4967930;28;87107;-86
2023/09/04 02:52:57;;;;;;;3.38;3.03;;;22.90;62.50;;;;;;4969224;28;89955;-86
2023/09/04 02:55:23;;;;;;;3.65;3.15;;;23.00;62.60;;;;;;4985448;28;88478;-86
2023/09/04 02:57:48;;;;;;;3.33;3.03;;;23.00;62.60;;;;;;4985332;28;92748;-86
2023/09/04 03:00:14;;;;;;;3.47;3.15;;;22.90;62.50;;;;;;4988311;28;87668;-85
2023/09/04 03:02:40;;;;;;;4.43;3.30;;;23.00;62.60;;;;;;4987609;28;87558;-87
2023/09/04 03:05:06;;;;;;;3.38;3.08;;;22.90;62.70;;;;;;4986303;28;88149;-87
2023/09/04 03:07:32;;;;;;;3.45;3.15;;;22.90;62.80;;;;;;4967843;28;90741;-86
2023/09/04 03:09:59;;;;;;;4.45;3.63;;;23.00;63.40;;;;;;4987254;28;89860;-85
2023/09/04 03:12:31;;;;;;;3.05;2.78;;;22.90;62.70;;;;;;4987567;28;86725;-87
2023/09/04 03:14:58;;;;;;;5.32;2.83;;;22.90;62.90;;;;;;4986499;28;88637;-86
2023/09/04 03:17:25;;;;;;;3.05;2.80;;;22.90;62.60;;;;;;4987510;28;87437;-86
2023/09/04 03:19:55;;;;;;;3.42;3.13;;;22.90;62.90;;;;;;4985293;28;88512;-85
2023/09/04 03:22:22;;;;;;;3.35;3.10;;;22.90;62.80;;;;;;4966098;28;89135;-86
2023/09/04 03:24:48;;;;;;;3.13;2.83;;;22.90;62.70;;;;;;4987832;28;87725;-85
2023/09/04 03:27:13;;;;;;;3.33;3.03;;;22.90;62.80;;;;;;4986043;28;87618;-85
2023/09/04 03:29:39;;;;;;;3.88;3.47;;;22.90;62.90;;;;;;4968504;28;87565;-86
2023/09/04 03:32:05;;;;;;;3.78;3.47;;;22.90;62.80;;;;;;4985983;28;87970;-87
2023/09/04 03:34:31;;;;;;;4.47;3.45;;;22.90;62.90;;;;;;4986277;28;88548;-86
2023/09/04 03:36:57;;;;;;;4.00;3.20;;;22.90;62.90;;;;;;4987580;28;86809;-85
2023/09/04 03:39:23;;;;;;;3.50;3.20;;;22.90;63.00;;;;;;4986121;28;87868;-87
2023/09/04 03:41:49;;;;;;;3.17;2.88;;;22.90;63.10;;;;;;4986921;28;87472;-86
2023/09/04 03:44:14;;;;;;;3.55;3.25;;;22.90;62.80;;;;;;4986504;28;88359;-85
2023/09/04 03:46:40;;;;;;;3.45;3.03;;;22.90;62.90;;;;;;4986457;28;88257;-86
2023/09/04 03:49:06;;;;;;;3.15;2.95;;;22.90;63.10;;;;;;4968358;28;87237;-86
2023/09/04 03:51:33;;;;;;;3.30;3.00;;;22.80;62.80;;;;;;4986930;28;87921;-86
2023/09/04 03:54:01;;;;;;;3.15;2.88;;;22.80;63.00;;;;;;4968027;28;90952;-87
2023/09/04 03:56:28;;;;;;;3.27;3.00;;;22.80;62.80;;;;;;4966249;28;89919;-87
2023/09/04 03:58:54;;;;;;;3.20;2.92;;;22.80;63.00;;;;;;4985678;28;87540;-86
2023/09/04 04:01:20;;;;;;;3.40;3.10;;;22.80;62.90;;;;;;4984303;28;87763;-87
2023/09/04 04:03:47;;;;;;;2.70;2.50;;;22.80;63.00;;;;;;4985486;28;90670;-86
2023/09/04 04:06:13;;;;;;;3.30;2.97;;;22.80;63.00;;;;;;4985296;28;88051;-85
2023/09/04 04:08:40;;;;;;;2.95;2.65;;;22.90;63.00;;;;;;4986106;28;88355;-86
2023/09/04 04:11:06;;;;;;;3.08;2.83;;;22.80;62.90;;;;;;4986042;28;87855;-85
2023/09/04 04:13:32;;;;;;;4.40;3.55;;;22.80;63.10;;;;;;4966628;28;88039;-85
2023/09/04 04:15:59;;;;;;;3.65;3.35;;;22.80;63.10;;;;;;4986085;28;88151;-86
2023/09/04 04:18:27;;;;;;;4.03;3.45;;;22.80;62.90;;;;;;4985379;28;87583;-87
2023/09/04 04:20:53;;;;;;;3.15;2.88;;;22.80;62.80;;;;;;4985818;28;87610;-85
2023/09/04 04:23:19;;;;;;;3.40;3.10;;;22.80;63.00;;;;;;4983482;28;90579;-86
2023/09/04 04:25:44;;;;;;;3.38;3.08;;;22.80;63.00;;;;;;4984782;28;87482;-87
2023/09/04 04:28:10;;;;;;;2.95;2.75;;;22.80;62.90;;;;;;4985523;28;87581;-87
2023/09/04 04:30:36;;;;;;;3.88;3.17;;;22.80;62.90;;;;;;4967800;28;91609;-85
2023/09/04 04:33:03;;;;;;;3.70;2.83;;;22.80;63.00;;;;;;4968021;28;90863;-87
2023/09/04 04:35:28;;;;;;;2.95;2.72;;;22.80;63.00;;;;;;4985418;28;89125;-87
2023/09/04 04:37:54;;;;;;;3.22;2.90;;;22.80;63.00;;;;;;4965620;28;88118;-85
2023/09/04 04:40:21;;;;;;;3.88;3.17;;;22.80;63.00;;;;;;4985596;28;87763;-87
2023/09/04 04:42:47;;;;;;;3.47;3.17;;;22.80;62.80;;;;;;4987297;28;88175;-87
2023/09/04 04:45:13;;;;;;;2.97;2.78;;;22.80;63.00;;;;;;4968411;28;90214;-85
2023/09/04 04:47:38;;;;;;;3.25;2.95;;;22.80;63.10;;;;;;4987416;28;87327;-86
2023/09/04 04:50:05;;;;;;;3.22;2.65;;;22.80;63.00;;;;;;4988580;28;86915;-87
2023/09/04 04:52:30;;;;;;;3.28;2.97;;;22.80;63.20;;;;;;4990113;28;87667;-86
2023/09/04 04:54:56;;;;;;;3.50;3.20;;;22.80;63.00;;;;;;4990052;28;87769;-87
2023/09/04 04:57:22;;;;;;;3.33;3.03;;;22.80;63.00;;;;;;4990917;28;88415;-87
2023/09/04 04:59:48;;;;;;;3.50;3.20;;;22.70;63.00;;;;;;4990197;28;87589;-85
2023/09/04 05:02:17;;;;;;;3.72;3.38;;;22.80;63.10;;;;;;4988979;28;87802;-86
2023/09/04 05:04:45;;;;;;;3.28;3.00;;;22.70;62.90;;;;;;4971279;28;87848;-87
2023/09/04 05:07:11;;;;;;;3.00;2.80;;;22.80;62.90;;;;;;4989565;28;87710;-86
2023/09/04 05:09:37;;;;;;;3.58;3.28;;;22.80;62.90;;;;;;4972453;28;89300;-87
2023/09/04 05:12:03;;;;;;;3.40;3.10;;;22.80;62.80;;;;;;4988811;28;88523;-88
2023/09/04 05:14:29;;;;;;;3.55;3.25;;;22.70;62.90;;;;;;4988719;28;88124;-85
2023/09/04 05:16:55;;;;;;;3.60;3.30;;;22.80;62.80;;;;;;4988314;28;87597;-85
2023/09/04 05:19:21;;;;;;;3.40;3.10;;;22.70;62.70;;;;;;4990953;28;87120;-86
2023/09/04 05:21:47;;;;;;;3.45;3.15;;;22.80;62.70;;;;;;4990197;28;89264;-87
2023/09/04 05:24:13;;;;;;;3.83;3.28;;;22.80;62.80;;;;;;4990935;28;89061;-86
2023/09/04 05:26:39;;;;;;;2.90;2.70;;;22.70;62.70;;;;;;4989155;28;87880;-86
2023/09/04 05:29:05;;;;;;;3.30;3.00;;;22.80;62.50;;;;;;4990443;28;87636;-86
2023/09/04 05:31:31;;;;;;;4.00;3.60;;;22.80;62.70;;;;;;4989262;28;88160;-85
2023/09/04 05:33:56;;;;;;;3.80;2.88;;;22.80;62.60;;;;;;4988916;28;87717;-85
2023/09/04 05:36:22;;;;;;;3.45;3.15;;;22.80;62.40;;;;;;4989794;28;87196;-86
2023/09/04 05:38:48;;;;;;;3.10;2.80;;;22.80;62.20;;;;;;4969046;28;91475;-86
2023/09/04 05:41:17;;;;;;;3.25;2.95;;;22.80;62.40;;;;;;4987869;28;87656;-85
2023/09/04 05:43:42;;;;;;;3.38;3.08;;;22.90;62.30;;;;;;4969705;28;90542;-87
2023/09/04 05:46:08;;;;;;;3.63;3.33;;;22.90;62.30;;;;;;4988637;28;88550;-86
2023/09/04 05:48:34;;;;;;;3.20;2.90;;;22.90;62.30;;;;;;4987554;28;87735;-86
2023/09/04 05:51:01;;;;;;;3.13;2.83;;;22.90;62.10;;;;;;4990384;28;88288;-87
2023/09/04 05:53:28;;;;;;;3.83;3.53;;;22.90;62.40;;;;;;4971184;28;90681;-86
2023/09/04 05:56:10;;;;;;;3.15;2.85;;;23.00;62.50;;;;;;4987992;28;87868;-85
2023/09/04 05:58:49;;;;;;;4.05;3.67;;;22.90;62.40;;;;;;4987393;28;86850;-86
2023/09/04 06:01:16;;;;;;;3.42;3.13;;;22.90;62.10;;;;;;4990022;28;88654;-86
2023/09/04 06:03:43;;;;;;;3.30;3.00;;;22.90;62.40;;;;;;4989695;28;91741;-86
2023/09/04 06:06:10;;;;;;;3.22;2.92;;;22.90;62.30;;;;;;4987188;28;87853;-85
2023/09/04 06:08:36;;;;;;;7.45;3.40;;;22.90;61.00;;;;;;4968114;28;88717;-85
2023/09/04 06:11:03;;;;;;;3.90;3.50;;;22.90;60.20;;;;;;4987664;28;88663;-86
2023/09/04 06:13:29;;;;;;;5.00;4.50;;;23.00;59.20;;;;;;4968359;28;91604;-86
2023/09/04 06:15:55;;;;;;;6.70;5.22;;;22.90;58.30;;;;;;4990119;28;87366;-88
2023/09/04 06:18:21;;;;;;;10.25;5.38;;;22.90;58.20;;;;;;4988662;28;86953;-87
2023/09/04 06:20:47;;;;;;;6.50;5.47;;;22.90;57.70;;;;;;4969653;28;90594;-86
2023/09/04 06:23:13;;;;;;;8.68;5.68;;;23.00;57.60;;;;;;4988283;28;87474;-86
2023/09/04 06:25:42;;;;;;;9.48;5.55;;;22.90;57.00;;;;;;4985860;28;87929;-87
2023/09/04 06:28:09;;;;;;;;;;;22.90;57.00;;;;;;4990230;28;88087;-85
2023/09/04 06:30:34;;;;;;;9.38;5.38;;;22.90;57.00;;;;;;4989755;28;87521;-85
2023/09/04 06:33:01;;;;;;;7.80;7.00;;;23.00;56.90;;;;;;4987381;28;88345;-84
2023/09/04 06:35:26;;;;;;;8.98;7.10;;;23.00;56.80;;;;;;4988285;28;88051;-86
2023/09/04 06:37:52;;;;;;;10.90;7.40;;;22.90;56.70;;;;;;4989113;28;87678;-86
2023/09/04 06:40:18;;;;;;;10.13;7.43;;;22.90;56.40;;;;;;4987095;28;87376;-85
2023/09/04 06:42:43;;;;;;;10.82;7.13;;;22.80;56.20;;;;;;4989042;28;88307;-85
2023/09/04 06:45:09;;;;;;;11.90;8.75;;;22.80;56.40;;;;;;4988173;28;87120;-85
2023/09/04 06:47:35;;;;;;;9.90;7.53;;;22.80;56.50;;;;;;4987778;28;87999;-85
2023/09/04 06:50:01;;;;;;;12.85;7.53;;;22.70;56.70;;;;;;4989134;28;88597;-85
2023/09/04 06:52:27;;;;;;;12.52;7.05;;;22.60;57.10;;;;;;4986674;28;88447;-85
2023/09/04 06:54:53;;;;;;;11.32;7.25;;;22.60;57.50;;;;;;4988767;28;88165;-85
2023/09/04 06:57:19;;;;;;;9.93;7.53;;;22.60;57.60;;;;;;4987066;28;87516;-85
2023/09/04 06:59:44;;;;;;;12.48;6.22;;;22.60;57.60;;;;;;4987077;28;88840;-85
2023/09/04 07:02:10;;;;;;;10.48;7.22;;;22.60;57.90;;;;;;4987136;28;88597;-84
2023/09/04 07:04:36;;;;;;;10.10;7.05;;;22.60;58.10;;;;;;4987241;28;92907;-86
2023/09/04 07:07:01;;;;;;;39.53;11.70;;;22.60;58.00;;;;;;4989764;28;88643;-86
2023/09/04 07:09:27;;;;;;;39.70;12.95;;;22.60;58.20;;;;;;4984274;28;88225;-85
2023/09/04 07:11:53;;;;;;;26.05;9.98;;;22.60;58.50;;;;;;4985416;28;88522;-85
2023/09/04 07:14:18;;;;;;;19.88;9.05;;;22.60;58.70;;;;;;4985404;28;87291;-85
2023/09/04 07:16:44;;;;;;;18.08;8.90;;;22.70;58.70;;;;;;4985636;28;86967;-85
2023/09/04 07:19:09;;;;;;;14.23;7.60;;;22.70;58.70;;;;;;4985104;28;88147;-85
2023/09/04 07:21:36;;;;;;;11.90;6.93;;;22.70;58.60;;;;;;4986490;28;87139;-85
2023/09/04 07:24:03;;;;;;;13.98;7.57;;;22.80;58.60;;;;;;4987152;28;88644;-85
2023/09/04 07:26:29;;;;;;;14.65;6.57;;;22.80;58.50;;;;;;4987393;28;87648;-85
2023/09/04 07:28:55;;;;;;;13.07;6.38;;;22.80;58.50;;;;;;4969069;28;90699;-85
2023/09/04 07:31:21;;;;;;;9.82;5.35;;;22.80;58.40;;;;;;4970634;28;89027;-85
2023/09/04 07:33:48;;;;;;;9.57;5.55;;;22.90;58.30;;;;;;4986718;28;87958;-86
2023/09/04 07:36:14;;;;;;;8.82;5.05;;;22.90;58.20;;;;;;4988871;28;87309;-85
2023/09/04 07:38:40;;;;;;;9.48;5.90;;;22.90;58.20;;;;;;4971705;28;89707;-85
2023/09/04 07:41:06;;;;;;;11.98;5.35;;;23.00;58.30;;;;;;4989630;28;88727;-86
2023/09/04 07:43:33;;;;;;;9.80;5.75;;;23.00;58.20;;;;;;4971598;28;87260;-85
2023/09/04 07:46:00;;;;;;;7.78;5.43;;;23.00;58.20;;;;;;4989279;28;89537;-84
2023/09/04 07:48:26;;;;;;;7.50;4.85;;;23.00;58.40;;;;;;4990284;28;89033;-86
2023/09/04 07:50:54;;;;;;;7.90;4.60;;;23.00;58.40;;;;;;4971707;28;91397;-86
2023/09/04 07:53:21;;;;;;;6.97;5.13;;;23.00;58.40;;;;;;4990371;28;87788;-85
2023/09/04 07:55:47;;;;;;;5.53;4.72;;;23.10;58.40;;;;;;4988382;28;87805;-85
2023/09/04 07:58:13;;;;;;;6.88;4.68;;;23.10;58.50;;;;;;4971060;28;89083;-86
2023/09/04 08:00:46;;;;;;;5.22;4.68;;;23.10;58.50;;;;;;4987587;28;89813;-86
2023/09/04 08:03:12;;;;;;;8.30;5.47;;;23.10;58.60;;;;;;4992049;28;87616;-86
2023/09/04 08:05:38;;;;;;;6.75;4.35;;;23.20;58.70;;;;;;4991336;28;86896;-86
2023/09/04 08:08:08;;;;;;;8.30;4.65;;;23.20;58.70;;;;;;4991406;28;88897;-85
2023/09/04 08:10:34;;;;;;;;;;;23.20;58.80;;;;;;4970324;28;89522;-85
2023/09/04 08:13:00;;;;;;;4.45;3.72;;;23.20;58.90;;;;;;4990315;28;87930;-87
2023/09/04 08:15:25;;;;;;;4.78;3.80;;;23.20;59.00;;;;;;4971041;28;89768;-86
2023/09/04 08:17:51;;;;;;;6.47;4.28;;;23.10;59.10;;;;;;4989019;28;87648;-85
2023/09/04 08:20:17;;;;;;;5.07;4.00;;;23.10;59.50;;;;;;4990150;28;88104;-85
2023/09/04 08:22:47;;;;;;;4.53;3.78;;;23.00;59.60;;;;;;4973282;28;87029;-87
2023/09/04 08:25:12;;;;;;;4.90;3.00;;;23.00;60.40;;;;;;4990119;28;87330;-85
2023/09/04 08:27:41;;;;;;;4.88;3.95;;;23.00;59.80;;;;;;4990479;28;87719;-86
2023/09/04 08:30:07;;;;;;;4.90;3.50;;;23.00;59.80;;;;;;4991225;28;86794;-85
2023/09/04 08:32:32;;;;;;;5.28;3.65;;;23.00;60.20;;;;;;4990362;28;87427;-85
2023/09/04 08:34:58;;;;;;;4.35;3.38;;;23.00;60.30;;;;;;4990289;28;87766;-86
2023/09/04 08:37:24;;;;;;;4.97;3.35;;;23.00;60.50;;;;;;4986161;28;91606;-85
2023/09/04 08:39:49;;;;;;;6.53;3.90;;;23.00;60.40;;;;;;4990431;28;88869;-85
2023/09/04 08:42:15;;;;;;;4.38;3.05;;;23.00;60.50;;;;;;4971480;28;87385;-85
2023/09/04 08:44:43;;;;;;;5.82;3.42;;;23.00;60.70;;;;;;4988523;28;88091;-85
2023/09/04 08:47:09;;;;;;;7.03;3.50;;;23.10;60.80;;;;;;4988753;28;88333;-85
2023/09/04 08:49:37;;;;;;;3.88;3.20;;;23.10;60.90;;;;;;4988746;28;88132;-85
2023/09/04 08:52:05;;;;;;;5.30;3.92;;;23.10;60.80;;;;;;4988462;28;88088;-86
2023/09/04 08:54:33;;;;;;;3.58;3.13;;;23.10;60.70;;;;;;4989531;28;86973;-85
2023/09/04 08:57:00;;;;;;;4.88;3.10;;;23.10;60.60;;;;;;4988969;28;88139;-85
2023/09/04 08:59:25;;;;;;;4.75;3.35;;;23.10;60.90;;;;;;4970765;28;90697;-85
2023/09/04 09:01:53;;;;;;;3.97;3.33;;;23.20;60.70;;;;;;4988215;28;88517;-85
2023/09/04 09:04:21;;;;;;;4.57;3.20;;;23.20;60.90;;;;;;4988323;28;87687;-85
2023/09/04 09:06:51;;;;;;;3.88;3.47;;;23.20;60.70;;;;;;4988081;28;90943;-86
2023/09/04 09:09:22;;;;;;;3.83;3.42;;;23.20;61.00;;;;;;4989981;28;87133;-86
2023/09/04 09:11:53;;;;;;;5.97;3.95;;;23.20;61.10;;;;;;4989000;28;87484;-85
2023/09/04 09:14:26;;;;;;;5.70;3.95;;;23.20;61.10;;;;;;4969507;28;89105;-85
2023/09/04 09:17:05;;;;;;;4.68;3.47;;;23.30;60.90;;;;;;4988952;28;88139;-85
2023/09/04 09:19:34;;;;;;;3.57;3.10;;;23.30;61.10;;;;;;4987416;28;87281;-85
2023/09/04 09:22:12;;;;;;;3.88;3.00;;;23.30;61.10;;;;;;4988294;28;87718;-85
2023/09/04 09:24:51;;;;;;;3.55;2.92;;;23.30;61.00;;;;;;4988599;28;87508;-86
2023/09/04 09:27:19;;;;;;;4.20;3.28;;;23.30;61.10;;;;;;4986245;28;88933;-86
2023/09/04 09:29:46;;;;;;;4.60;3.22;;;23.30;61.30;;;;;;4967677;28;89638;-84
2023/09/04 09:32:12;;;;;;;4.00;3.05;;;23.40;61.50;;;;;;4969344;28;87853;-85
2023/09/04 09:34:39;;;;;;;5.05;3.45;;;23.40;61.80;;;;;;4988594;28;87575;-85
2023/09/04 09:37:07;;;;;;;5.82;3.30;;;23.40;61.70;;;;;;4990394;28;88253;-85
2023/09/04 09:39:33;;;;;;;5.35;3.38;;;23.40;61.80;;;;;;4989315;28;87779;-86
2023/09/04 09:42:00;;;;;;;5.00;3.30;;;23.40;61.40;;;;;;4989130;28;87801;-85
2023/09/04 09:44:31;;;;;;;6.93;3.50;;;23.40;61.40;;;;;;4989864;28;87121;-85
2023/09/04 09:46:57;;;;;;;4.30;3.63;;;23.40;61.50;;;;;;4990629;28;88313;-85
2023/09/04 09:49:22;;;;;;;6.20;4.03;;;23.40;60.70;;;;;;4989653;28;87906;-85
2023/09/04 09:51:54;;;;;;;4.47;2.97;;;23.40;60.70;;;;;;4988708;28;88430;-86
2023/09/04 09:54:37;;;;;;;5.68;3.38;;;23.40;60.80;;;;;;4988294;28;87687;-84
2023/09/04 09:57:07;;;;;;;4.93;3.42;;;23.40;60.60;;;;;;4989153;28;87868;-85
2023/09/04 09:59:34;;;;;;;7.65;3.05;;;23.40;60.70;;;;;;4986387;28;87595;-87
2023/09/04 10:02:02;;;;;;;3.78;3.42;;;23.40;60.70;;;;;;4988784;28;87777;-85
2023/09/04 10:04:29;;;;;;;5.10;3.08;;;23.40;60.70;;;;;;4986804;28;87952;-85
2023/09/04 10:06:58;;;;;;;5.82;3.13;;;23.40;60.90;;;;;;4988956;28;88480;-84
2023/09/04 10:09:26;;;;;;;5.67;3.03;;;23.40;61.30;;;;;;4988302;28;86672;-84
2023/09/04 10:12:15;;;;;;;3.90;2.90;;;23.40;61.10;;;;;;4987197;28;87564;-85
2023/09/04 10:14:42;;;;;;;4.45;2.72;;;23.40;61.10;;;;;;4988311;28;88079;-83
2023/09/04 10:17:23;;;;;;;7.97;3.08;;;23.40;61.00;;;;;;4987483;28;88901;-85
2023/09/04 10:19:53;;;;;;;5.93;3.40;;;23.40;61.10;;;;;;4986953;28;88683;-84
2023/09/04 10:22:25;;;;;;;6.47;3.42;;;23.50;61.20;;;;;;4988887;28;88193;-85
2023/09/04 10:25:01;;;;;;;3.95;3.00;;;23.50;61.10;;;;;;4991127;28;88009;-87
2023/09/04 10:27:31;;;;;;;3.40;2.67;;;23.50;61.20;;;;;;4989193;28;87821;-85
2023/09/04 10:30:01;;;;;;;5.95;2.97;;;23.50;61.30;;;;;;4986567;28;87500;-86
2023/09/04 10:32:28;;;;;;;8.70;3.47;;;23.60;61.30;;;;;;4988937;28;88193;-85
2023/09/04 10:34:54;;;;;;;6.40;2.95;;;23.70;61.30;;;;;;4970993;28;89872;-85
2023/09/04 10:37:21;;;;;;;5.70;3.58;;;23.70;61.00;;;;;;4986238;28;88544;-84
2023/09/04 10:39:47;;;;;;;6.15;3.28;;;23.60;61.30;;;;;;4968601;28;89158;-84
2023/09/04 10:42:14;;;;;;;5.40;2.83;;;23.50;61.60;;;;;;4987905;28;88236;-85
2023/09/04 10:44:44;;;;;;;3.67;3.20;;;23.50;62.50;;;;;;4987021;28;87196;-83
2023/09/04 10:47:10;;;;;;;8.35;3.00;;;23.50;61.90;;;;;;4988338;28;87749;-83
2023/09/04 10:49:35;;;;;;;5.57;3.42;;;23.40;61.80;;;;;;4987163;28;87361;-83
2023/09/04 10:52:01;;;;;;;5.28;3.35;;;23.40;61.80;;;;;;4985528;28;87056;-83
2023/09/04 10:54:27;;;;;;;6.97;3.63;;;23.50;62.20;;;;;;4988073;28;87934;-82
2023/09/04 10:56:57;;;;;;;3.53;2.85;;;23.50;61.90;;;;;;4985383;28;87376;-84
2023/09/04 10:59:23;;;;;;;;;;;23.60;62.40;;;;;;4988537;28;87463;-82
2023/09/04 11:01:49;;;;;;;5.32;3.70;;;23.60;62.60;;;;;;4988510;28;87369;-83
2023/09/04 11:04:36;;;;;;;6.20;3.70;;;23.60;62.60;;;;;;4986742;28;87779;-83
2023/09/04 11:07:20;;;;;;;4.50;3.55;;;23.60;62.70;;;;;;4986372;28;92114;-84
2023/09/04 11:10:01;;;;;;;8.38;3.72;;;23.60;62.80;;;;;;4969747;28;91376;-84
2023/09/04 11:12:27;;;;;;;7.53;3.55;;;23.60;62.70;;;;;;4986893;28;87360;-83
2023/09/04 11:14:54;;;;;;;8.38;3.70;;;23.60;62.40;;;;;;4989925;28;87366;-83
2023/09/04 11:17:27;;;;;;;8.05;3.13;;;23.60;62.70;;;;;;4990710;28;88211;-84
2023/09/04 11:19:52;;;;;;;6.55;3.03;;;23.60;62.70;;;;;;4970492;28;89794;-83
2023/09/04 11:22:24;;;;;;;5.32;3.28;;;23.60;62.70;;;;;;4992015;28;87169;-84
2023/09/04 11:24:53;;;;;;;6.38;3.40;;;23.60;62.60;;;;;;4992707;28;87283;-84
2023/09/04 11:27:20;;;;;;;6.20;3.40;;;23.60;62.60;;;;;;4989942;28;87785;-84
2023/09/04 11:29:46;;;;;;;6.13;3.38;;;23.60;62.70;;;;;;4989063;28;88030;-83
2023/09/04 11:32:12;;;;;;;7.03;3.05;;;23.60;62.60;;;;;;4989210;28;88679;-83
2023/09/04 11:34:37;;;;;;;3.95;3.20;;;23.60;62.60;;;;;;4990566;28;87735;-83
2023/09/04 11:37:04;;;;;;;5.65;3.60;;;23.60;62.50;;;;;;4990984;28;89283;-83
2023/09/04 11:39:31;;;;;;;4.10;3.10;;;23.60;62.30;;;;;;4991573;28;88299;-84
2023/09/04 11:41:56;;;;;;;5.03;3.58;;;23.60;62.40;;;;;;4973143;28;87857;-83
2023/09/04 11:44:22;;;;;;;4.90;3.05;;;23.60;62.60;;;;;;4990177;28;88294;-84
2023/09/04 11:46:48;;;;;;;4.85;3.30;;;23.60;62.40;;;;;;4991909;28;87662;-84
2023/09/04 11:49:14;;;;;;;4.88;3.40;;;23.60;62.30;;;;;;4990137;28;88583;-86
2023/09/04 11:51:41;;;;;;;4.00;3.53;;;23.60;62.30;;;;;;4990229;28;87635;-85
2023/09/04 11:54:07;;;;;;;3.90;3.50;;;23.60;62.60;;;;;;4991815;28;87322;-84
2023/09/04 11:56:34;;;;;;;4.38;2.65;;;23.60;62.40;;;;;;4989464;28;89009;-83
2023/09/04 11:59:02;;;;;;;3.03;2.70;;;23.60;62.40;;;;;;4988658;28;88946;-83
2023/09/04 12:01:28;;;;;;;4.97;3.35;;;23.60;62.30;;;;;;4987621;28;88093;-83
2023/09/04 12:03:53;;;;;;;5.18;3.05;;;23.60;62.30;;;;;;4989761;28;87463;-84
2023/09/04 12:06:24;;;;;;;6.53;3.45;;;23.60;62.30;;;;;;4990314;28;87657;-84
2023/09/04 12:08:49;;;;;;;4.63;3.28;;;23.60;62.30;;;;;;4972322;28;90135;-84
2023/09/04 12:11:16;;;;;;;4.25;2.95;;;23.70;62.50;;;;;;4990915;28;87623;-84
2023/09/04 12:13:42;;;;;;;4.90;3.15;;;23.60;62.70;;;;;;4968196;28;87080;-84
2023/09/04 12:16:08;;;;;;;6.25;3.63;;;23.60;63.00;;;;;;4990026;28;88253;-84
2023/09/04 12:18:37;;;;;;;4.78;3.65;;;23.60;63.40;;;;;;4971019;28;90298;-84
2023/09/04 12:21:09;;;;;;;5.93;3.50;;;23.70;62.80;;;;;;4989792;28;88618;-84
2023/09/04 12:23:43;;;;;;;4.03;2.78;;;23.70;62.90;;;;;;4971248;28;90051;-87
2023/09/04 12:26:09;;;;;;;3.70;2.80;;;23.70;62.90;;;;;;4972136;28;89514;-85
2023/09/04 12:28:36;;;;;;;8.45;3.78;;;23.70;63.60;;;;;;4988754;28;88086;-86
2023/09/04 12:31:02;;;;;;;4.10;3.42;;;23.70;63.40;;;;;;4991467;28;87878;-85
2023/09/04 12:33:28;;;;;;;4.88;3.00;;;23.70;63.30;;;;;;4990947;28;87816;-84
2023/09/04 12:35:58;;;;;;;4.47;3.22;;;23.70;63.40;;;;;;4990554;28;88061;-85
2023/09/04 12:38:24;;;;;;;9.75;4.05;;;23.70;63.20;;;;;;4986433;28;90979;-84
2023/09/04 12:40:50;;;;;;;3.80;3.22;;;23.70;63.20;;;;;;4991569;28;87913;-85
2023/09/04 12:43:15;;;;;;;7.25;4.20;;;23.70;63.40;;;;;;4991246;28;87561;-85
2023/09/04 12:45:42;;;;;;;3.65;3.22;;;23.80;63.30;;;;;;4989574;28;93813;-86
2023/09/04 12:48:15;;;;;;;7.07;3.72;;;23.80;63.10;;;;;;4971768;28;87543;-85